CMA CGM Musca — 2CAC8 — position and weather

sailwx.info

Track history (hours):
 
Tides and Currents Weather Stations Pressure Air Temp Water Temp Dewpoint Dewpoint Depression Visibility Wind Speed Wind Dir Waves Ship Positions

CMA CGM Musca

Last reported at 2018-Apr-21 19:54 UTC. Time now 2018-Apr-23 23:19 UTC.
Position N 25°20' E 120°01'.

Length 347 m; draft 13.7 m.

Type: Ship (hazmat cat A). MMSI: 235070914.

Date/timePositionNaut miles runAvg speedWind from/ knotsBaromVisibWave heightAir tempDewpointWater temp
2018-Apr-21 19:54N 25°20' E 120°01'512.4
2018-Apr-21 19:28N 25°16' E 119°57'612.1
2018-Apr-21 19:00N 25°12' E 119°53'812.1
2018-Apr-21 18:21N 25°07' E 119°46'512.4
2018-Apr-21 17:58N 25°04' E 119°42'812.2
2018-Apr-21 17:21N 24°59' E 119°36'1612.5
2018-Apr-21 16:04N 24°48' E 119°23'111.1
2018-Apr-21 15:57N 24°47' E 119°22'612.1
2018-Apr-21 15:26N 24°44' E 119°16'512.4
2018-Apr-21 15:00N 24°41' E 119°11'612.3
2018-Apr-21 14:29N 24°38' E 119°05'612.3
2018-Apr-21 14:00N 24°35' E 118°60'612.4
2018-Apr-21 13:30N 24°31' E 118°55'812.3
2018-Apr-21 12:49N 24°25' E 118°48'412.4
2018-Apr-21 12:28N 24°22' E 118°44'612.8
2018-Apr-21 12:00N 24°19' E 118°39'714.3
2018-Apr-21 11:30N 24°15' E 118°32'714.3
2018-Apr-21 11:00N 24°13' E 118°25'612.0
2018-Apr-21 10:29N 24°13' E 118°18'612.5
2018-Apr-21 10:00N 24°17' E 118°13'714.6
2018-Apr-21 09:30N 24°22' E 118°08'713.1
2018-Apr-21 09:00N 24°26' E 118°02'3 3.3
2018-Apr-21 08:00N 24°27' E 117°59'0 0.0
2018-Apr-21 07:26N 24°27' E 117°59'0 0.0
2018-Apr-21 06:59N 24°27' E 117°59'0 0.0
2018-Apr-21 05:26N 24°27' E 117°59'0 0.0
2018-Apr-21 04:58N 24°27' E 117°59'0 0.0
2018-Apr-21 04:28N 24°27' E 117°59'0 0.0
2018-Apr-21 03:49N 24°27' E 117°59'0 0.0
2018-Apr-21 03:22N 24°27' E 117°59'0 0.0
2018-Apr-21 02:57N 24°27' E 117°59'0 0.0
2018-Apr-21 02:21N 24°27' E 117°59'0 0.0
2018-Apr-21 01:21N 24°27' E 117°59'0 0.0
2018-Apr-21 00:57N 24°27' E 117°59'0 0.0
2018-Apr-20 23:32N 24°27' E 117°59'0 0.0
2018-Apr-20 23:14N 24°27' E 117°59'0 0.0
2018-Apr-20 22:44N 24°27' E 117°59'0 0.0
2018-Apr-20 22:25N 24°27' E 117°59'0 0.0
2018-Apr-20 21:49N 24°27' E 117°59'0 0.0
2018-Apr-20 21:25N 24°27' E 117°59'0 0.0
2018-Apr-20 20:43N 24°27' E 117°59'0 0.0
2018-Apr-20 20:25N 24°27' E 117°59'0 0.0
2018-Apr-20 20:00N 24°27' E 117°59'0 0.0
2018-Apr-20 19:24N 24°27' E 117°59'0 0.0
2018-Apr-20 18:48N 24°27' E 117°59'0 0.0
2018-Apr-20 17:47N 24°27' E 117°59'0 0.0
2018-Apr-20 17:23N 24°27' E 117°59'0 0.0
2018-Apr-20 16:53N 24°27' E 117°59'0 0.0
2018-Apr-20 15:59N 24°27' E 117°59'0 0.0
2018-Apr-20 15:28N 24°27' E 117°59'0 0.0
2018-Apr-20 13:40N 24°27' E 117°59'0 0.0
2018-Apr-20 13:25N 24°27' E 117°59'0 0.0
2018-Apr-20 13:00N 24°27' E 117°59'1 1.7
2018-Apr-20 12:30N 24°27' E 117°59'4 8.1
2018-Apr-20 12:00N 24°26' E 118°04'611.2
2018-Apr-20 11:30N 24°22' E 118°08'714.1
2018-Apr-20 11:00N 24°17' E 118°13'814.9
2018-Apr-20 10:30N 24°11' E 118°19'814.8
2018-Apr-20 09:59N 24°04' E 118°18'714.8
2018-Apr-20 09:30N 23°57' E 118°14'914.7
2018-Apr-20 08:53N 23°50' E 118°09'1812.8
2018-Apr-20 07:28N 23°36' E 117°56'  
2018-Apr-15 12:06N 01°15' E 104°10'215.5
2018-Apr-15 11:57N 01°15' E 104°08'715.3
2018-Apr-15 11:30N 01°14' E 104°01'815.3
2018-Apr-15 10:59N 01°12' E 103°53'714.7
2018-Apr-15 10:30N 01°09' E 103°47'815.7
2018-Apr-15 10:00N 01°04' E 103°41'712.9
2018-Apr-15 09:30N 01°05' E 103°35'5 9.7
2018-Apr-15 08:58N 01°08' E 103°31'613.4
2018-Apr-15 08:30N 01°11' E 103°25'714.2
2018-Apr-15 07:59N 01°15' E 103°19'  
Track history (hours):
 
Tides and Currents Weather Stations Pressure Air Temp Water Temp Dewpoint Dewpoint Depression Visibility Wind Speed Wind Dir Waves Ship Positions

CMA CGM Musca

Last reported at 2018-Apr-21 19:54 UTC. Time now 2018-Apr-23 23:19 UTC.
Position N 25°20' E 120°01'.

Length 347 m; draft 13.7 m.

Type: Ship (hazmat cat A). MMSI: 235070914.

Date/timePositionNaut miles runAvg speedWind from/ knotsBaromVisibWave heightAir tempDewpointWater temp
2018-Apr-21 19:54N 25°20' E 120°01'512.4
2018-Apr-21 19:28N 25°16' E 119°57'612.1
2018-Apr-21 19:00N 25°12' E 119°53'812.1
2018-Apr-21 18:21N 25°07' E 119°46'512.4
2018-Apr-21 17:58N 25°04' E 119°42'812.2
2018-Apr-21 17:21N 24°59' E 119°36'1612.5
2018-Apr-21 16:04N 24°48' E 119°23'111.1
2018-Apr-21 15:57N 24°47' E 119°22'612.1
2018-Apr-21 15:26N 24°44' E 119°16'512.4
2018-Apr-21 15:00N 24°41' E 119°11'612.3
2018-Apr-21 14:29N 24°38' E 119°05'612.3
2018-Apr-21 14:00N 24°35' E 118°60'612.4
2018-Apr-21 13:30N 24°31' E 118°55'812.3
2018-Apr-21 12:49N 24°25' E 118°48'412.4
2018-Apr-21 12:28N 24°22' E 118°44'612.8
2018-Apr-21 12:00N 24°19' E 118°39'714.3
2018-Apr-21 11:30N 24°15' E 118°32'714.3
2018-Apr-21 11:00N 24°13' E 118°25'612.0
2018-Apr-21 10:29N 24°13' E 118°18'612.5
2018-Apr-21 10:00N 24°17' E 118°13'714.6
2018-Apr-21 09:30N 24°22' E 118°08'713.1
2018-Apr-21 09:00N 24°26' E 118°02'3 3.3
2018-Apr-21 08:00N 24°27' E 117°59'0 0.0
2018-Apr-21 07:26N 24°27' E 117°59'0 0.0
2018-Apr-21 06:59N 24°27' E 117°59'0 0.0
2018-Apr-21 05:26N 24°27' E 117°59'0 0.0
2018-Apr-21 04:58N 24°27' E 117°59'0 0.0
2018-Apr-21 04:28N 24°27' E 117°59'0 0.0
2018-Apr-21 03:49N 24°27' E 117°59'0 0.0
2018-Apr-21 03:22N 24°27' E 117°59'0 0.0
2018-Apr-21 02:57N 24°27' E 117°59'0 0.0
2018-Apr-21 02:21N 24°27' E 117°59'0 0.0
2018-Apr-21 01:21N 24°27' E 117°59'0 0.0
2018-Apr-21 00:57N 24°27' E 117°59'0 0.0
2018-Apr-20 23:32N 24°27' E 117°59'0 0.0
2018-Apr-20 23:14N 24°27' E 117°59'0 0.0
2018-Apr-20 22:44N 24°27' E 117°59'0 0.0
2018-Apr-20 22:25N 24°27' E 117°59'0 0.0
2018-Apr-20 21:49N 24°27' E 117°59'0 0.0
2018-Apr-20 21:25N 24°27' E 117°59'0 0.0
2018-Apr-20 20:43N 24°27' E 117°59'0 0.0
2018-Apr-20 20:25N 24°27' E 117°59'0 0.0
2018-Apr-20 20:00N 24°27' E 117°59'0 0.0
2018-Apr-20 19:24N 24°27' E 117°59'0 0.0
2018-Apr-20 18:48N 24°27' E 117°59'0 0.0
2018-Apr-20 17:47N 24°27' E 117°59'0 0.0
2018-Apr-20 17:23N 24°27' E 117°59'0 0.0
2018-Apr-20 16:53N 24°27' E 117°59'0 0.0
2018-Apr-20 15:59N 24°27' E 117°59'0 0.0
2018-Apr-20 15:28N 24°27' E 117°59'0 0.0
2018-Apr-20 13:40N 24°27' E 117°59'0 0.0
2018-Apr-20 13:25N 24°27' E 117°59'0 0.0
2018-Apr-20 13:00N 24°27' E 117°59'1 1.7
2018-Apr-20 12:30N 24°27' E 117°59'4 8.1
2018-Apr-20 12:00N 24°26' E 118°04'611.2
2018-Apr-20 11:30N 24°22' E 118°08'714.1
2018-Apr-20 11:00N 24°17' E 118°13'814.9
2018-Apr-20 10:30N 24°11' E 118°19'814.8
2018-Apr-20 09:59N 24°04' E 118°18'714.8
2018-Apr-20 09:30N 23°57' E 118°14'914.7
2018-Apr-20 08:53N 23°50' E 118°09'1812.8
2018-Apr-20 07:28N 23°36' E 117°56'  
2018-Apr-15 12:06N 01°15' E 104°10'215.5
2018-Apr-15 11:57N 01°15' E 104°08'715.3
2018-Apr-15 11:30N 01°14' E 104°01'815.3
2018-Apr-15 10:59N 01°12' E 103°53'714.7
2018-Apr-15 10:30N 01°09' E 103°47'815.7
2018-Apr-15 10:00N 01°04' E 103°41'712.9
2018-Apr-15 09:30N 01°05' E 103°35'5 9.7
2018-Apr-15 08:58N 01°08' E 103°31'613.4
2018-Apr-15 08:30N 01°11' E 103°25'714.2
2018-Apr-15 07:59N 01°15' E 103°19'  

Dump ship's entire track history